createdAt,value
2017-03-23T19:51:01.537Z,83.90
2017-03-23T19:52:00.224Z,83.60
2017-03-23T19:52:59.342Z,83.80
2017-03-23T19:53:59.465Z,83.70
2017-03-23T19:55:03.785Z,83.20
2017-03-23T19:56:03.346Z,83.20
2017-03-23T19:57:05.856Z,83.70
2017-03-23T19:58:08.063Z,83.70
2017-03-23T19:59:07.936Z,83.70
2017-03-23T20:00:07.098Z,83.80
2017-03-23T20:01:07.443Z,83.70
2017-03-23T20:02:09.654Z,83.40
2017-03-23T20:03:10.681Z,83.30
2017-03-23T20:04:11.339Z,83.20
2017-03-23T20:05:11.581Z,83.70
2017-03-23T20:06:12.150Z,83.40
2017-03-23T20:07:12.385Z,83.60
2017-03-23T20:08:11.714Z,84.10
2017-03-23T20:09:10.304Z,84.10
2017-03-23T20:10:15.210Z,83.60
2017-03-23T20:11:16.632Z,83.80
2017-03-23T20:12:18.206Z,83.60
2017-03-23T20:13:19.328Z,83.80
2017-03-23T20:14:21.719Z,83.70
2017-03-23T20:15:25.026Z,84.20
2017-03-23T20:16:28.563Z,84.40
2017-03-23T20:17:31.800Z,83.80
2017-03-23T20:18:34.214Z,83.70
2017-03-23T20:19:38.895Z,83.30
2017-03-23T20:20:37.500Z,83.20
2017-03-23T20:21:38.385Z,84.00
2017-03-23T20:22:38.840Z,83.40
2017-03-23T20:23:41.434Z,83.30
2017-03-23T20:24:39.955Z,83.70
2017-03-23T20:25:38.482Z,82.70
2017-03-23T20:26:37.049Z,82.90
2017-03-23T20:27:36.885Z,83.50
2017-03-23T20:28:36.137Z,83.40
2017-03-23T20:29:34.794Z,83.40
2017-03-23T20:30:34.581Z,82.80
2017-03-23T20:31:34.092Z,82.70
2017-03-23T20:32:33.599Z,82.40
2017-03-23T20:33:32.716Z,82.40
2017-03-23T20:34:31.532Z,82.50
2017-03-23T20:35:30.785Z,82.40
2017-03-23T20:36:29.398Z,82.40
2017-03-23T20:37:28.822Z,82.70
2017-03-23T20:38:27.308Z,82.60
2017-03-23T20:39:26.344Z,82.20
2017-03-23T20:40:25.237Z,82.50
2017-03-23T20:41:25.823Z,82.70
2017-03-23T20:42:24.409Z,83.20
2017-03-23T20:43:22.868Z,83.10
2017-03-23T20:44:22.184Z,83.00
2017-03-23T20:45:21.265Z,82.90
2017-03-23T20:46:19.805Z,82.30
2017-03-23T20:47:19.373Z,83.50
2017-03-23T20:48:18.963Z,83.30
2017-03-23T20:49:17.749Z,83.20
2017-03-23T20:50:16.552Z,83.50
2017-03-23T20:51:15.744Z,84.10
2017-03-23T20:52:14.265Z,84.80
2017-03-23T20:53:12.895Z,85.10
2017-03-23T20:54:12.309Z,84.30
2017-03-23T20:55:11.213Z,84.30
2017-03-23T20:56:09.849Z,84.70
2017-03-23T20:57:09.591Z,84.50
2017-03-23T20:58:09.041Z,85.30
2017-03-23T20:59:07.604Z,85.00
2017-03-23T21:00:07.449Z,84.50
2017-03-23T21:01:06.956Z,85.00
2017-03-23T21:02:05.545Z,85.00
2017-03-23T21:03:05.371Z,85.30
2017-03-23T21:04:03.894Z,85.10
2017-03-23T21:05:02.357Z,85.00
2017-03-23T21:06:00.832Z,85.30
2017-03-23T21:07:01.088Z,87.00
2017-03-23T21:07:59.890Z,86.30
2017-03-23T21:08:58.914Z,85.70
2017-03-23T21:09:57.488Z,85.70
2017-03-23T21:10:56.152Z,85.80
2017-03-23T21:11:54.927Z,85.40
2017-03-23T21:12:53.428Z,85.60
2017-03-23T21:13:52.187Z,85.40
2017-03-23T21:14:52.121Z,86.30
2017-03-23T21:15:51.396Z,86.30
2017-03-23T21:16:50.120Z,85.40
2017-03-23T21:17:49.580Z,85.50
2017-03-23T21:18:48.830Z,86.20
2017-03-23T21:19:47.944Z,86.20
2017-03-23T21:20:47.669Z,86.10
2017-03-23T21:21:46.413Z,86.10
2017-03-23T21:22:45.648Z,85.40
2017-03-23T21:23:44.956Z,85.20
2017-03-23T21:24:43.712Z,85.20
2017-03-23T21:25:42.432Z,85.00
2017-03-23T21:26:42.169Z,85.10
2017-03-23T21:27:41.526Z,85.40
2017-03-23T21:28:40.490Z,85.20
2017-03-23T21:29:40.073Z,84.80
2017-03-23T21:30:39.385Z,84.70
2017-03-23T21:31:38.082Z,84.50
2017-03-23T21:32:37.932Z,84.50
2017-03-23T21:33:37.425Z,84.60
2017-03-23T21:34:36.349Z,84.60
2017-03-23T21:35:36.000Z,84.80
2017-03-23T21:36:34.723Z,84.80
2017-03-23T21:37:33.230Z,84.60
2017-03-23T21:38:32.062Z,84.70
2017-03-23T21:39:31.376Z,84.50
2017-03-23T21:40:31.764Z,84.60
2017-03-23T21:41:31.133Z,84.50
2017-03-23T21:42:30.477Z,84.70
2017-03-23T21:43:28.943Z,84.70
2017-03-23T21:44:27.853Z,84.90
2017-03-23T21:45:26.346Z,85.00
2017-03-23T21:46:25.796Z,84.70
2017-03-23T21:47:24.365Z,84.80
2017-03-23T21:48:22.833Z,84.50
2017-03-23T21:49:21.297Z,84.80
2017-03-23T21:50:20.929Z,84.30
2017-03-23T21:51:19.405Z,84.20
2017-03-23T21:52:18.631Z,84.40
2017-03-23T21:53:17.909Z,84.60
2017-03-23T21:54:16.393Z,84.60
2017-03-23T21:55:15.650Z,85.30
2017-03-23T21:56:15.176Z,85.80
2017-03-23T21:57:14.401Z,86.10
2017-03-23T21:58:13.638Z,85.80
2017-03-23T21:59:12.106Z,85.80
2017-03-23T22:00:10.654Z,85.30
2017-03-23T22:01:09.193Z,85.00
2017-03-23T22:02:08.064Z,84.90
2017-03-23T22:03:06.529Z,84.50
2017-03-23T22:04:05.924Z,84.00
2017-03-23T22:05:04.419Z,84.10
2017-03-23T22:06:03.698Z,84.40
2017-03-23T22:07:02.224Z,84.20
2017-03-23T22:08:01.790Z,84.50
2017-03-23T22:09:01.021Z,85.00
2017-03-23T22:10:00.253Z,85.00
2017-03-23T22:10:58.724Z,85.00
2017-03-23T22:11:57.957Z,84.30
2017-03-23T22:12:57.250Z,84.50
2017-03-23T22:13:55.995Z,84.50
2017-03-23T22:14:54.511Z,84.70
2017-03-23T22:15:52.988Z,84.70
2017-03-23T22:16:52.224Z,85.50
2017-03-23T22:17:51.737Z,84.50
2017-03-23T22:18:51.046Z,86.00
2017-03-23T22:19:49.911Z,86.00
2017-03-23T22:20:48.377Z,86.30
2017-03-23T22:21:46.849Z,86.80
2017-03-23T22:22:45.318Z,87.00
2017-03-23T22:23:43.775Z,86.40
2017-03-23T22:24:42.361Z,86.80
2017-03-23T22:25:41.992Z,86.80
2017-03-23T22:26:43.565Z,86.80
2017-03-23T22:27:46.400Z,86.90
2017-03-23T22:28:45.831Z,86.50
2017-03-23T22:29:45.070Z,86.50
2017-03-23T22:30:44.219Z,86.50
2017-03-23T22:31:42.702Z,86.90
2017-03-23T22:32:41.929Z,86.60
2017-03-23T22:33:40.397Z,86.60
2017-03-23T22:34:38.885Z,86.60
2017-03-23T22:35:38.133Z,87.10
2017-03-23T22:36:37.097Z,87.10
2017-03-23T22:37:36.325Z,87.50
2017-03-23T22:38:35.548Z,87.80
2017-03-23T22:39:34.008Z,87.80
2017-03-23T22:40:32.536Z,87.30
2017-03-23T22:41:31.164Z,87.80
2017-03-23T22:42:29.930Z,87.90
2017-03-23T22:43:28.432Z,87.80
2017-03-23T22:44:27.673Z,87.30
2017-03-23T22:45:26.917Z,87.70
2017-03-23T22:46:26.173Z,87.70
2017-03-23T22:47:24.681Z,87.70
2017-03-23T22:48:23.660Z,87.80
2017-03-23T22:49:22.913Z,87.60
2017-03-23T22:50:22.156Z,87.10
2017-03-23T22:51:20.672Z,87.00
2017-03-23T22:52:19.923Z,86.60
2017-03-23T22:53:18.394Z,86.50
2017-03-23T22:54:17.249Z,86.30
2017-03-23T22:55:15.767Z,86.40
2017-03-23T22:56:14.993Z,86.60
2017-03-23T22:57:13.478Z,86.60
2017-03-23T22:58:11.967Z,86.80
2017-03-23T22:59:11.184Z,87.10
2017-03-23T23:00:10.793Z,86.90
2017-03-23T23:01:09.287Z,86.90
2017-03-23T23:02:07.777Z,86.80
2017-03-23T23:03:07.045Z,87.10
2017-03-23T23:04:06.433Z,87.10
2017-03-23T23:05:05.693Z,87.10
2017-03-23T23:06:04.552Z,86.50
2017-03-23T23:07:03.795Z,87.70
2017-03-23T23:08:02.266Z,87.60
2017-03-23T23:09:08.261Z,89.00
2017-03-23T23:10:06.774Z,88.80
2017-03-23T23:11:05.572Z,89.10
2017-03-23T23:12:04.827Z,89.10
2017-03-23T23:13:03.304Z,89.10
2017-03-23T23:14:02.537Z,89.80
2017-03-23T23:15:01.788Z,90.00
2017-03-23T23:16:01.041Z,90.60
2017-03-23T23:16:59.812Z,90.60
2017-03-23T23:17:58.279Z,89.90
2017-03-23T23:18:56.797Z,90.20
2017-03-23T23:19:55.261Z,90.00
2017-03-23T23:20:55.336Z,90.80
2017-03-23T23:21:54.570Z,91.10
2017-03-23T23:22:54.261Z,90.90
2017-03-23T23:23:53.535Z,91.50
2017-03-23T23:24:52.004Z,91.50
2017-03-23T23:25:50.485Z,91.60
2017-03-23T23:26:49.735Z,91.90
2017-03-23T23:27:48.206Z,92.60
2017-03-23T23:28:47.049Z,92.50
2017-03-23T23:29:46.303Z,92.80
2017-03-23T23:30:44.752Z,92.80
2017-03-23T23:31:43.975Z,92.40
2017-03-23T23:32:42.438Z,92.40
2017-03-23T23:33:40.949Z,92.30
2017-03-23T23:34:39.790Z,92.50
2017-03-23T23:35:38.268Z,92.70
2017-03-23T23:36:36.728Z,92.80
2017-03-23T23:37:35.195Z,92.80
2017-03-23T23:38:34.420Z,92.30
2017-03-23T23:39:33.653Z,92.50
2017-03-23T23:40:32.416Z,92.50
2017-03-23T23:41:30.868Z,91.60
2017-03-23T23:42:29.397Z,91.90
2017-03-23T23:43:28.640Z,92.40
2017-03-23T23:44:27.087Z,92.30
2017-03-23T23:45:26.299Z,92.30
2017-03-23T23:46:25.149Z,92.30
2017-03-23T23:47:23.618Z,92.50
2017-03-23T23:48:22.852Z,92.60
2017-03-23T23:49:22.145Z,91.90
2017-03-23T23:50:21.507Z,91.70
2017-03-23T23:51:20.745Z,91.80
2017-03-23T23:52:19.548Z,91.80
2017-03-23T23:53:18.009Z,92.30
2017-03-23T23:54:16.493Z,91.80
2017-03-23T23:55:15.730Z,91.50
2017-03-23T23:56:14.964Z,91.20
2017-03-23T23:57:14.199Z,92.20
2017-03-23T23:58:13.835Z,91.90
2017-03-23T23:59:13.093Z,92.00
